This is the latest recevied weather packets stored in our database for station/object DO1MIT-10. If no packets are shown the sender has not sent any weather packets the latest 10 day(s).
| Time | Temp. | Humidity | Pressure | Rain* | Wind** | Luminosity | Snow |
|---|---|---|---|---|---|---|---|
| 1787434650 | 11.11° C | 88% | 1023.2 hPa | - | - | - | - |
| 1787433750 | 11.11° C | 88% | 1023.2 hPa | - | - | - | - |
| 1787432850 | 11.11° C | 88% | 1023 hPa | - | - | - | - |
| 1787431950 | 11.67° C | 88% | 1022.9 hPa | - | - | - | - |
| 1787431050 | 11.67° C | 87% | 1022.8 hPa | - | - | - | - |
| 1787430149 | 12.22° C | 87% | 1022.7 hPa | - | - | - | - |
| 1787429249 | 12.22° C | 86% | 1022.5 hPa | - | - | - | - |
| 1787428349 | 12.78° C | 86% | 1022.6 hPa | - | - | - | - |
| 1787427449 | 13.33° C | 86% | 1022.6 hPa | - | - | - | - |
| 1787426549 | 13.89° C | 85% | 1022.5 hPa | - | - | - | - |
| 1787425649 | 14.44° C | 85% | 1022.3 hPa | - | - | - | - |
| 1787424749 | 15° C | 84% | 1022.2 hPa | - | - | - | - |
| 1787423849 | 14.44° C | 85% | 1021.8 hPa | - | - | - | - |
| 1787422949 | 14.44° C | 84% | 1021.5 hPa | - | - | - | - |
| 1787422048 | 15° C | 83% | 1021.5 hPa | - | - | - | - |
| 1787421148 | 15° C | 84% | 1021.2 hPa | - | - | - | - |
| 1787420248 | 16.11° C | 83% | 1021.2 hPa | - | - | - | - |
| 1787419348 | 16.11° C | 83% | 1021.2 hPa | - | - | - | - |
| 1787418448 | 16.11° C | 83% | 1021.1 hPa | - | - | - | - |
| 1787417548 | 16.67° C | 82% | 1021 hPa | - | - | - | - |
| 1787416648 | 17.22° C | 82% | 1020.9 hPa | - | - | - | - |
| 1787415748 | 17.78° C | 83% | 1021 hPa | - | - | - | - |
| 1787414848 | 17.78° C | 83% | 1021 hPa | - | - | - | - |
| 1787413947 | 18.33° C | 83% | 1020.9 hPa | - | - | - | - |
| 1787413047 | 18.33° C | 83% | 1020.9 hPa | - | - | - | - |
* Rain since midnight (hover to see other rain measurements)
** Current wind speed in m/s (hover to see current wind gust speed)